Terminal Aerodrome Forecast
Issued by NWS Detroit/Pontiac, MI

Home | Current Version | Previous Version | Text Only | Print | Product List | Glossary On
Versions: 1 2 3 4 5 6 7 8 9 10 11 12 13 14 15 16 17 18 19 20 21 22 23 24 25
000
FTUS43 KDTX 032323
TAFDTW
TAF
KDTW 032323Z 0400/0506 24006KT P6SM OVC030
     FM040100 VRB03KT P6SM OVC035
      TEMPO 0410/0414 SCT035 OVC150
     FM041400 16005KT P6SM BKN040 OVC080
     FM042200 12007KT 4SM -SN BKN028 BKN060 OVC080
     FM050000 14005KT 1 1/2SM -SN BR BKN012 OVC028
     FM050400 18006KT P6SM BKN018 OVC040=

USA.gov is the U.S. government's official web portal to all federal, state and local government web resources and services.